Map

Track Data

SID SEASON NUMBER BASIN SUBBASIN NAME ISO_TIME NATURE LAT LON WMO_WIND WMO_PRES WMO_AGENCY TRACK_TYPE DIST2LAND LANDFALL IFLAG USA_AGENCY USA_ATCF_ID USA_LAT USA_LON USA_RECORD USA_STATUS USA_WIND USA_PRES USA_SSHS USA_R34_NE USA_R34_SE USA_R34_SW USA_R34_NW USA_R50_NE USA_R50_SE USA_R50_SW USA_R50_NW USA_R64_NE USA_R64_SE USA_R64_SW USA_R64_NW USA_POCI USA_ROCI USA_RMW USA_EYE TOKYO_LAT TOKYO_LON TOKYO_GRADE TOKYO_WIND TOKYO_PRES TOKYO_R50_DIR TOKYO_R50_LONG TOKYO_R50_SHORT TOKYO_R30_DIR TOKYO_R30_LONG TOKYO_R30_SHORT TOKYO_LAND CMA_LAT CMA_LON CMA_CAT CMA_WIND CMA_PRES HKO_LAT HKO_LON HKO_CAT HKO_WIND HKO_PRES NEWDELHI_LAT NEWDELHI_LON NEWDELHI_GRADE NEWDELHI_WIND NEWDELHI_PRES NEWDELHI_CI NEWDELHI_DP NEWDELHI_POCI REUNION_LAT REUNION_LON REUNION_TYPE REUNION_WIND REUNION_PRES REUNION_TNUM REUNION_CI REUNION_RMW REUNION_R34_NE REUNION_R34_SE REUNION_R34_SW REUNION_R34_NW REUNION_R50_NE REUNION_R50_SE REUNION_R50_SW REUNION_R50_NW REUNION_R64_NE REUNION_R64_SE REUNION_R64_SW REUNION_R64_NW BOM_LAT BOM_LON BOM_TYPE BOM_WIND BOM_PRES BOM_TNUM BOM_CI BOM_RMW BOM_R34_NE BOM_R34_SE BOM_R34_SW BOM_R34_NW BOM_R50_NE BOM_R50_SE BOM_R50_SW BOM_R50_NW BOM_R64_NE BOM_R64_SE BOM_R64_SW BOM_R64_NW BOM_ROCI BOM_POCI BOM_EYE BOM_POS_METHOD BOM_PRES_METHOD NADI_LAT NADI_LON NADI_CAT NADI_WIND NADI_PRES WELLINGTON_LAT WELLINGTON_LON WELLINGTON_WIND WELLINGTON_PRES DS824_LAT DS824_LON DS824_STAGE DS824_WIND DS824_PRES TD9636_LAT TD9636_LON TD9636_STAGE TD9636_WIND TD9636_PRES TD9635_LAT TD9635_LON TD9635_WIND TD9635_PRES TD9635_ROCI NEUMANN_LAT NEUMANN_LON NEUMANN_CLASS NEUMANN_WIND NEUMANN_PRES MLC_LAT MLC_LON MLC_CLASS MLC_WIND MLC_PRES USA_GUST BOM_GUST BOM_GUST_PER REUNION_GUST REUNION_GUST_PER USA_SEAHGT USA_SEARAD_NE USA_SEARAD_SE USA_SEARAD_SW USA_SEARAD_NW STORM_SPEED STORM_DIR
1886100S12069 1886 6 SI MM NOT_NAMED 1886-04-10 00:00:00 TS -12.3000 68.8000 main 1471 1440 _________O____ -1 -12.3000 68.8000 TC 6 232
1886100S12069 1886 6 SI MM NOT_NAMED 1886-04-10 03:00:00 TS -12.5001 68.5451 main 1431 1400 _________P____ -1 -12.5001 68.5451 TC 6 231
1886100S12069 1886 6 SI MM NOT_NAMED 1886-04-10 06:00:00 TS -12.7000 68.3000 main 1400 1370 _________O____ -1 -12.7000 68.3000 TC 6 229
1886100S12069 1886 6 SI MM NOT_NAMED 1886-04-10 09:00:00 TS -12.8999 68.0649 main 1370 1330 _________P____ -1 -12.8999 68.0649 TC 6 231
1886100S12069 1886 6 SI MM NOT_NAMED 1886-04-10 12:00:00 TS -13.1000 67.8000 main 1330 1291 _________O____ -1 -13.1000 67.8000 TC 7 236
1886100S12069 1886 6 SI MM NOT_NAMED 1886-04-10 15:00:00 TS -13.2925 67.4649 main 1291 1243 _________P____ -1 -13.2925 67.4649 TC 8 240
1886100S12069 1886 6 SI MM NOT_NAMED 1886-04-10 18:00:00 TS -13.5000 67.1000 main 1243 1203 _________O____ -1 -13.5000 67.1000 TC 8 237
1886100S12069 1886 6 SI MM NOT_NAMED 1886-04-10 21:00:00 TS -13.7500 66.7350 main 1188 1149 _________P____ -1 -13.7500 66.7350 TC 8 234
1886100S12069 1886 6 SI MM NOT_NAMED 1886-04-11 00:00:00 TS -14.0000 66.4000 main 1149 1109 _________O____ -1 -14.0000 66.4000 TC 7 232
1886100S12069 1886 6 SI MM NOT_NAMED 1886-04-11 03:00:00 TS -14.1999 66.1349 main 1109 1079 _________P____ -1 -14.1999 66.1349 TC 6 230
1886100S12069 1886 6 SI MM NOT_NAMED 1886-04-11 06:00:00 TS -14.4000 65.9000 main 1079 1048 _________O____ -1 -14.4000 65.9000 TC 6 226
1886100S12069 1886 6 SI MM NOT_NAMED 1886-04-11 09:00:00 TS -14.6499 65.6575 main 1048 1002 _________P____ -1 -14.6499 65.6575 TC 7 224
1886100S12069 1886 6 SI MM NOT_NAMED 1886-04-11 12:00:00 TS -14.9000 65.4000 main 1002 963 _________O____ -1 -14.9000 65.4000 TC 7 230
1886100S12069 1886 6 SI MM NOT_NAMED 1886-04-11 15:00:00 TS -15.1075 65.1000 main 963 924 _________P____ -1 -15.1075 65.1000 TC 7 235
1886100S12069 1886 6 SI MM NOT_NAMED 1886-04-11 18:00:00 TS -15.3000 64.8000 main 924 884 _________O____ -1 -15.3000 64.8000 TC 7 235
1886100S12069 1886 6 SI MM NOT_NAMED 1886-04-11 21:00:00 TS -15.4925 64.5349 main 884 854 _________P____ -1 -15.4925 64.5349 TC 6 230
1886100S12069 1886 6 SI MM NOT_NAMED 1886-04-12 00:00:00 TS -15.7000 64.3000 main 854 823 _________O____ -1 -15.7000 64.3000 TC 6 224
1886100S12069 1886 6 SI MM NOT_NAMED 1886-04-12 03:00:00 TS -15.9425 64.0850 main 823 787 _________P____ -1 -15.9425 64.0850 TC 6 218
1886100S12069 1886 6 SI MM NOT_NAMED 1886-04-12 06:00:00 TS -16.2000 63.9000 main 787 765 _________O____ -1 -16.2000 63.9000 TC 6 213
1886100S12069 1886 6 SI MM NOT_NAMED 1886-04-12 09:00:00 TS -16.4425 63.7424 main 756 729 _________P____ -1 -16.4425 63.7424 TC 6 210
1886100S12069 1886 6 SI MM NOT_NAMED 1886-04-12 12:00:00 TS -16.7000 63.6000 main 729 702 _________O____ -1 -16.7000 63.6000 TC 6 207
1886100S12069 1886 6 SI MM NOT_NAMED 1886-04-12 15:00:00 TS -16.9925 63.4500 main 693 667 _________P____ -1 -16.9925 63.4500 TC 7 206
1886100S12069 1886 6 SI MM NOT_NAMED 1886-04-12 18:00:00 TS -17.3000 63.3000 main 667 642 _________O____ -1 -17.3000 63.3000 TC 7 206
1886100S12069 1886 6 SI MM NOT_NAMED 1886-04-12 21:00:00 TS -17.5850 63.1499 main 633 608 _________P____ -1 -17.5850 63.1499 TC 7 205
1886100S12069 1886 6 SI MM NOT_NAMED 1886-04-13 00:00:00 TS -17.9000 63.0000 main 608 580 _________O____ -1 -17.9000 63.0000 TC 8 203
1886100S12069 1886 6 SI MM NOT_NAMED 1886-04-13 03:00:00 TS -18.2850 62.8425 main 570 543 _________P____ -1 -18.2850 62.8425 TC 9 200
1886100S12069 1886 6 SI MM NOT_NAMED 1886-04-13 06:00:00 TS -18.7000 62.7000 main 543 520 _________O____ -1 -18.7000 62.7000 TC 9 198
1886100S12069 1886 6 SI MM NOT_NAMED 1886-04-13 09:00:00 TS -19.0925 62.5701 main 520 499 _________P____ -1 -19.0925 62.5701 TC 8 193
1886100S12069 1886 6 SI MM NOT_NAMED 1886-04-13 12:00:00 TS -19.5000 62.5000 main 499 492 _________O____ -1 -19.5000 62.5000 TC 9 183
1886100S12069 1886 6 SI MM NOT_NAMED 1886-04-13 15:00:00 TS -19.9500 62.5199 main 492 490 _________P____ -1 -19.9500 62.5199 TC 9 174
1886100S12069 1886 6 SI MM NOT_NAMED 1886-04-13 18:00:00 TS -20.4000 62.6000 main 500 500 _________O____ -1 -20.4000 62.6000 TC 9 170
1886100S12069 1886 6 SI MM NOT_NAMED 1886-04-13 21:00:00 TS -20.8225 62.6925 main 513 513 _________P____ -1 -20.8225 62.6925 TC 8 167
1886100S12069 1886 6 SI MM NOT_NAMED 1886-04-14 00:00:00 TS -21.2000 62.8000 main 529 529 _________O____ -1 -21.2000 62.8000 TC 7 164
1886100S12069 1886 6 SI MM NOT_NAMED 1886-04-14 03:00:00 TS -21.5150 62.9001 main 546 546 _________P____ -1 -21.5150 62.9001 TC 6 163
1886100S12069 1886 6 SI MM NOT_NAMED 1886-04-14 06:00:00 TS -21.8000 63.0000 main 564 564 _________O____ -1 -21.8000 63.0000 TC 6 162
1886100S12069 1886 6 SI MM NOT_NAMED 1886-04-14 09:00:00 TS -22.1000 63.1000 main 584 584 _________P____ -1 -22.1000 63.1000 TC 6 163
1886100S12069 1886 6 SI MM NOT_NAMED 1886-04-14 12:00:00 TS -22.4000 63.2000 main 606 606 _________O____ -1 -22.4000 63.2000 TC 6 164
1886100S12069 1886 6 SI MM NOT_NAMED 1886-04-14 15:00:00 TS -22.7000 63.2926 main 628 628 _________P____ -1 -22.7000 63.2926 TC 6 163
1886100S12069 1886 6 SI MM NOT_NAMED 1886-04-14 18:00:00 TS -23.0000 63.4000 main 651 651 _________O____ -1 -23.0000 63.4000 TC 6 159
1886100S12069 1886 6 SI MM NOT_NAMED 1886-04-14 21:00:00 TS -23.3000 63.5398 main 675 675 _________P____ -1 -23.3000 63.5398 TC 7 155
1886100S12069 1886 6 SI MM NOT_NAMED 1886-04-15 00:00:00 TS -23.6000 63.7000 main 708 _________O____ -1 -23.6000 63.7000 TC 7 154

About IBTrACS Database

This database is a web-friendly format of International Best Track Archive for Climate Stewardship (IBTrACS), a global best track data archive curated by NOAA dating back to 1842.

Updated: 2021-11-26